sensor_id;sensor_type;location;lat;lon;timestamp;P1;durP1;ratioP1;P2;durP2;ratioP2
35540;SDS011;21650;48.840;9.162;2022-12-05T00:01:25;25.23;;;12.57;;
35540;SDS011;21650;48.840;9.162;2022-12-05T00:03:52;23.53;;;12.30;;
35540;SDS011;21650;48.840;9.162;2022-12-05T00:06:21;22.83;;;11.30;;
35540;SDS011;21650;48.840;9.162;2022-12-05T00:08:48;26.17;;;11.90;;
35540;SDS011;21650;48.840;9.162;2022-12-05T00:11:15;23.97;;;11.93;;
35540;SDS011;21650;48.840;9.162;2022-12-05T00:13:42;22.23;;;12.23;;
35540;SDS011;21650;48.840;9.162;2022-12-05T00:16:09;24.63;;;11.23;;
35540;SDS011;21650;48.840;9.162;2022-12-05T00:18:36;22.17;;;12.13;;
35540;SDS011;21650;48.840;9.162;2022-12-05T00:21:02;23.80;;;11.90;;
35540;SDS011;21650;48.840;9.162;2022-12-05T00:23:29;25.13;;;12.63;;
35540;SDS011;21650;48.840;9.162;2022-12-05T00:25:54;26.23;;;12.33;;
35540;SDS011;21650;48.840;9.162;2022-12-05T00:28:20;23.23;;;11.90;;
35540;SDS011;21650;48.840;9.162;2022-12-05T00:30:45;23.30;;;10.73;;
35540;SDS011;21650;48.840;9.162;2022-12-05T00:33:11;23.47;;;11.87;;
35540;SDS011;21650;48.840;9.162;2022-12-05T00:35:36;26.50;;;12.90;;
35540;SDS011;21650;48.840;9.162;2022-12-05T00:38:02;25.17;;;12.37;;
35540;SDS011;21650;48.840;9.162;2022-12-05T00:40:27;25.30;;;11.77;;
35540;SDS011;21650;48.840;9.162;2022-12-05T00:42:53;24.00;;;11.87;;
35540;SDS011;21650;48.840;9.162;2022-12-05T00:45:18;28.97;;;12.43;;
35540;SDS011;21650;48.840;9.162;2022-12-05T00:47:44;22.50;;;12.20;;
35540;SDS011;21650;48.840;9.162;2022-12-05T00:50:09;25.43;;;11.73;;
35540;SDS011;21650;48.840;9.162;2022-12-05T00:52:35;27.83;;;13.17;;
35540;SDS011;21650;48.840;9.162;2022-12-05T00:55:00;26.90;;;12.60;;
35540;SDS011;21650;48.840;9.162;2022-12-05T00:57:26;25.23;;;12.93;;
35540;SDS011;21650;48.840;9.162;2022-12-05T00:59:52;25.27;;;12.50;;
35540;SDS011;21650;48.840;9.162;2022-12-05T01:02:17;26.57;;;12.87;;
35540;SDS011;21650;48.840;9.162;2022-12-05T01:04:43;23.70;;;12.23;;
35540;SDS011;21650;48.840;9.162;2022-12-05T01:07:08;22.67;;;13.17;;
35540;SDS011;21650;48.840;9.162;2022-12-05T01:09:34;24.63;;;12.13;;
35540;SDS011;21650;48.840;9.162;2022-12-05T01:12:00;26.13;;;13.47;;
35540;SDS011;21650;48.840;9.162;2022-12-05T01:14:26;28.37;;;12.90;;
35540;SDS011;21650;48.840;9.162;2022-12-05T01:16:52;28.17;;;13.33;;
35540;SDS011;21650;48.840;9.162;2022-12-05T01:19:20;24.97;;;11.87;;
35540;SDS011;21650;48.840;9.162;2022-12-05T01:21:50;22.53;;;12.57;;
35540;SDS011;21650;48.840;9.162;2022-12-05T01:24:16;26.37;;;12.63;;
35540;SDS011;21650;48.840;9.162;2022-12-05T01:26:44;28.07;;;13.37;;
35540;SDS011;21650;48.840;9.162;2022-12-05T01:29:11;26.70;;;12.57;;
35540;SDS011;21650;48.840;9.162;2022-12-05T01:31:38;27.27;;;12.50;;
35540;SDS011;21650;48.840;9.162;2022-12-05T01:34:05;25.57;;;13.50;;
35540;SDS011;21650;48.840;9.162;2022-12-05T01:36:32;26.20;;;13.37;;
35540;SDS011;21650;48.840;9.162;2022-12-05T01:38:58;29.37;;;13.80;;
35540;SDS011;21650;48.840;9.162;2022-12-05T01:41:26;26.80;;;12.30;;
35540;SDS011;21650;48.840;9.162;2022-12-05T01:46:51;26.07;;;12.80;;
35540;SDS011;21650;48.840;9.162;2022-12-05T01:49:31;26.43;;;12.63;;
35540;SDS011;21650;48.840;9.162;2022-12-05T01:52:03;24.77;;;13.27;;
35540;SDS011;21650;48.840;9.162;2022-12-05T01:54:35;25.13;;;12.40;;
35540;SDS011;21650;48.840;9.162;2022-12-05T01:57:03;26.67;;;12.23;;
35540;SDS011;21650;48.840;9.162;2022-12-05T01:59:32;21.80;;;12.83;;
35540;SDS011;21650;48.840;9.162;2022-12-05T02:02:02;25.47;;;11.70;;
35540;SDS011;21650;48.840;9.162;2022-12-05T02:04:28;23.43;;;11.33;;
35540;SDS011;21650;48.840;9.162;2022-12-05T02:06:53;22.07;;;11.33;;
35540;SDS011;21650;48.840;9.162;2022-12-05T02:09:19;23.00;;;11.23;;
35540;SDS011;21650;48.840;9.162;2022-12-05T02:11:49;21.87;;;11.47;;
35540;SDS011;21650;48.840;9.162;2022-12-05T02:14:25;20.90;;;11.37;;
35540;SDS011;21650;48.840;9.162;2022-12-05T02:25:47;22.47;;;11.63;;
35540;SDS011;21650;48.840;9.162;2022-12-05T02:31:25;21.37;;;10.97;;
35540;SDS011;21650;48.840;9.162;2022-12-05T02:36:33;21.43;;;11.47;;
35540;SDS011;21650;48.840;9.162;2022-12-05T02:39:13;19.77;;;10.13;;
35540;SDS011;21650;48.840;9.162;2022-12-05T02:41:48;22.20;;;12.03;;
35540;SDS011;21650;48.840;9.162;2022-12-05T02:44:21;20.10;;;9.93;;
35540;SDS011;21650;48.840;9.162;2022-12-05T02:47:14;20.90;;;10.17;;
35540;SDS011;21650;48.840;9.162;2022-12-05T02:49:45;21.07;;;10.67;;
35540;SDS011;21650;48.840;9.162;2022-12-05T02:52:12;18.53;;;9.80;;
35540;SDS011;21650;48.840;9.162;2022-12-05T02:54:41;21.10;;;9.33;;
35540;SDS011;21650;48.840;9.162;2022-12-05T02:57:10;18.80;;;8.97;;
35540;SDS011;21650;48.840;9.162;2022-12-05T02:59:37;21.50;;;10.93;;
35540;SDS011;21650;48.840;9.162;2022-12-05T03:02:03;18.17;;;9.40;;
35540;SDS011;21650;48.840;9.162;2022-12-05T03:04:29;21.77;;;9.37;;
35540;SDS011;21650;48.840;9.162;2022-12-05T03:06:59;18.93;;;9.37;;
35540;SDS011;21650;48.840;9.162;2022-12-05T03:09:33;20.37;;;9.60;;
35540;SDS011;21650;48.840;9.162;2022-12-05T03:14:37;18.60;;;9.17;;
35540;SDS011;21650;48.840;9.162;2022-12-05T03:17:09;18.43;;;9.87;;
35540;SDS011;21650;48.840;9.162;2022-12-05T03:22:43;20.90;;;9.80;;
35540;SDS011;21650;48.840;9.162;2022-12-05T03:25:14;20.57;;;10.33;;
35540;SDS011;21650;48.840;9.162;2022-12-05T03:27:48;15.43;;;8.53;;
35540;SDS011;21650;48.840;9.162;2022-12-05T03:30:26;19.03;;;9.13;;
35540;SDS011;21650;48.840;9.162;2022-12-05T03:35:28;18.57;;;8.37;;
35540;SDS011;21650;48.840;9.162;2022-12-05T03:38:04;18.07;;;10.13;;
35540;SDS011;21650;48.840;9.162;2022-12-05T03:48:29;19.07;;;8.97;;
35540;SDS011;21650;48.840;9.162;2022-12-05T03:51:07;20.30;;;9.63;;
35540;SDS011;21650;48.840;9.162;2022-12-05T03:53:36;21.60;;;10.97;;
35540;SDS011;21650;48.840;9.162;2022-12-05T03:56:09;24.97;;;11.03;;
35540;SDS011;21650;48.840;9.162;2022-12-05T03:58:48;25.77;;;10.67;;
35540;SDS011;21650;48.840;9.162;2022-12-05T04:01:22;20.57;;;11.20;;
35540;SDS011;21650;48.840;9.162;2022-12-05T04:03:55;18.83;;;10.00;;
35540;SDS011;21650;48.840;9.162;2022-12-05T04:06:25;23.60;;;11.10;;
35540;SDS011;21650;48.840;9.162;2022-12-05T04:09:04;22.53;;;10.73;;
35540;SDS011;21650;48.840;9.162;2022-12-05T04:11:36;19.97;;;11.23;;
35540;SDS011;21650;48.840;9.162;2022-12-05T04:14:10;21.83;;;11.37;;
35540;SDS011;21650;48.840;9.162;2022-12-05T04:16:53;20.63;;;10.97;;
35540;SDS011;21650;48.840;9.162;2022-12-05T04:19:34;26.30;;;10.70;;
35540;SDS011;21650;48.840;9.162;2022-12-05T04:22:28;23.43;;;10.90;;
35540;SDS011;21650;48.840;9.162;2022-12-05T04:24:55;19.57;;;10.63;;
35540;SDS011;21650;48.840;9.162;2022-12-05T04:30:35;18.50;;;10.33;;
35540;SDS011;21650;48.840;9.162;2022-12-05T04:39:03;24.33;;;11.57;;
35540;SDS011;21650;48.840;9.162;2022-12-05T04:41:05;20.53;;;10.00;;
35540;SDS011;21650;48.840;9.162;2022-12-05T04:43:38;20.63;;;11.13;;
35540;SDS011;21650;48.840;9.162;2022-12-05T04:46:07;25.57;;;12.53;;
35540;SDS011;21650;48.840;9.162;2022-12-05T04:48:36;22.83;;;10.77;;
35540;SDS011;21650;48.840;9.162;2022-12-05T04:51:05;19.87;;;9.93;;
35540;SDS011;21650;48.840;9.162;2022-12-05T04:53:33;20.20;;;10.23;;
35540;SDS011;21650;48.840;9.162;2022-12-05T04:56:00;19.33;;;8.70;;
35540;SDS011;21650;48.840;9.162;2022-12-05T04:58:28;27.37;;;10.97;;
35540;SDS011;21650;48.840;9.162;2022-12-05T05:06:04;22.33;;;9.80;;
35540;SDS011;21650;48.840;9.162;2022-12-05T05:08:30;23.77;;;10.77;;
35540;SDS011;21650;48.840;9.162;2022-12-05T05:13:33;21.47;;;11.17;;
35540;SDS011;21650;48.840;9.162;2022-12-05T05:15:59;26.10;;;12.20;;
35540;SDS011;21650;48.840;9.162;2022-12-05T05:18:24;21.17;;;10.53;;
35540;SDS011;21650;48.840;9.162;2022-12-05T05:20:50;24.33;;;12.07;;
35540;SDS011;21650;48.840;9.162;2022-12-05T05:23:15;26.73;;;11.87;;
35540;SDS011;21650;48.840;9.162;2022-12-05T05:25:41;21.53;;;11.30;;
35540;SDS011;21650;48.840;9.162;2022-12-05T05:28:06;21.17;;;11.57;;
35540;SDS011;21650;48.840;9.162;2022-12-05T05:30:32;25.97;;;12.27;;
35540;SDS011;21650;48.840;9.162;2022-12-05T05:32:58;22.60;;;10.83;;
35540;SDS011;21650;48.840;9.162;2022-12-05T05:35:24;24.03;;;12.43;;
35540;SDS011;21650;48.840;9.162;2022-12-05T05:37:49;23.40;;;11.83;;
35540;SDS011;21650;48.840;9.162;2022-12-05T05:40:15;29.10;;;13.23;;
35540;SDS011;21650;48.840;9.162;2022-12-05T05:42:42;21.17;;;11.80;;
35540;SDS011;21650;48.840;9.162;2022-12-05T05:45:09;24.53;;;12.03;;
35540;SDS011;21650;48.840;9.162;2022-12-05T05:47:35;25.17;;;11.77;;
35540;SDS011;21650;48.840;9.162;2022-12-05T05:50:01;27.47;;;11.80;;
35540;SDS011;21650;48.840;9.162;2022-12-05T05:52:27;21.67;;;11.47;;
35540;SDS011;21650;48.840;9.162;2022-12-05T05:54:52;29.70;;;13.47;;
35540;SDS011;21650;48.840;9.162;2022-12-05T05:57:18;26.70;;;13.20;;
35540;SDS011;21650;48.840;9.162;2022-12-05T05:59:44;23.53;;;10.93;;
35540;SDS011;21650;48.840;9.162;2022-12-05T06:02:10;21.33;;;12.13;;
35540;SDS011;21650;48.840;9.162;2022-12-05T06:04:35;24.50;;;12.03;;
35540;SDS011;21650;48.840;9.162;2022-12-05T06:07:01;22.07;;;10.97;;
35540;SDS011;21650;48.840;9.162;2022-12-05T06:09:27;27.20;;;12.10;;
35540;SDS011;21650;48.840;9.162;2022-12-05T06:11:52;25.77;;;11.40;;
35540;SDS011;21650;48.840;9.162;2022-12-05T06:14:18;22.50;;;11.70;;
35540;SDS011;21650;48.840;9.162;2022-12-05T06:16:43;24.63;;;12.13;;
35540;SDS011;21650;48.840;9.162;2022-12-05T06:19:09;22.83;;;11.03;;
35540;SDS011;21650;48.840;9.162;2022-12-05T06:21:34;23.87;;;12.27;;
35540;SDS011;21650;48.840;9.162;2022-12-05T06:24:00;22.20;;;11.13;;
35540;SDS011;21650;48.840;9.162;2022-12-05T06:26:25;24.83;;;12.40;;
35540;SDS011;21650;48.840;9.162;2022-12-05T06:28:51;27.93;;;12.03;;
35540;SDS011;21650;48.840;9.162;2022-12-05T06:31:18;32.17;;;13.50;;
35540;SDS011;21650;48.840;9.162;2022-12-05T06:33:46;26.93;;;13.10;;
35540;SDS011;21650;48.840;9.162;2022-12-05T06:36:13;23.23;;;11.87;;
35540;SDS011;21650;48.840;9.162;2022-12-05T06:38:40;24.77;;;12.90;;
35540;SDS011;21650;48.840;9.162;2022-12-05T06:41:07;29.73;;;12.67;;
35540;SDS011;21650;48.840;9.162;2022-12-05T06:43:33;21.77;;;12.63;;
35540;SDS011;21650;48.840;9.162;2022-12-05T06:46:00;26.53;;;12.87;;
35540;SDS011;21650;48.840;9.162;2022-12-05T06:48:32;21.20;;;11.60;;
35540;SDS011;21650;48.840;9.162;2022-12-05T06:50:57;24.60;;;12.53;;
35540;SDS011;21650;48.840;9.162;2022-12-05T06:53:23;24.63;;;11.63;;
35540;SDS011;21650;48.840;9.162;2022-12-05T06:55:59;25.13;;;11.90;;
35540;SDS011;21650;48.840;9.162;2022-12-05T06:58:26;24.20;;;12.70;;
35540;SDS011;21650;48.840;9.162;2022-12-05T07:00:52;30.30;;;13.77;;
35540;SDS011;21650;48.840;9.162;2022-12-05T07:03:36;21.27;;;11.67;;
35540;SDS011;21650;48.840;9.162;2022-12-05T07:06:03;22.77;;;11.00;;
35540;SDS011;21650;48.840;9.162;2022-12-05T07:08:30;24.63;;;10.60;;
35540;SDS011;21650;48.840;9.162;2022-12-05T07:10:55;23.50;;;12.07;;
35540;SDS011;21650;48.840;9.162;2022-12-05T07:13:21;24.90;;;11.30;;
35540;SDS011;21650;48.840;9.162;2022-12-05T07:15:47;20.30;;;12.17;;
35540;SDS011;21650;48.840;9.162;2022-12-05T07:18:13;20.37;;;11.10;;
35540;SDS011;21650;48.840;9.162;2022-12-05T07:20:40;24.03;;;12.13;;
35540;SDS011;21650;48.840;9.162;2022-12-05T07:23:06;22.67;;;11.10;;
35540;SDS011;21650;48.840;9.162;2022-12-05T07:25:31;23.37;;;10.70;;
35540;SDS011;21650;48.840;9.162;2022-12-05T07:27:57;19.90;;;11.13;;
35540;SDS011;21650;48.840;9.162;2022-12-05T07:30:23;18.10;;;10.67;;
35540;SDS011;21650;48.840;9.162;2022-12-05T07:32:48;23.03;;;11.93;;
35540;SDS011;21650;48.840;9.162;2022-12-05T07:35:14;21.13;;;12.13;;
35540;SDS011;21650;48.840;9.162;2022-12-05T07:37:39;24.43;;;11.77;;
35540;SDS011;21650;48.840;9.162;2022-12-05T07:40:05;18.00;;;11.40;;
35540;SDS011;21650;48.840;9.162;2022-12-05T07:42:31;19.93;;;11.07;;
35540;SDS011;21650;48.840;9.162;2022-12-05T07:44:56;17.23;;;10.57;;
35540;SDS011;21650;48.840;9.162;2022-12-05T07:47:22;19.83;;;10.23;;
35540;SDS011;21650;48.840;9.162;2022-12-05T07:49:47;24.93;;;12.57;;
35540;SDS011;21650;48.840;9.162;2022-12-05T07:52:13;24.97;;;10.00;;
35540;SDS011;21650;48.840;9.162;2022-12-05T07:54:39;17.73;;;10.33;;
35540;SDS011;21650;48.840;9.162;2022-12-05T07:57:04;18.73;;;10.37;;
35540;SDS011;21650;48.840;9.162;2022-12-05T07:59:30;25.97;;;14.53;;
35540;SDS011;21650;48.840;9.162;2022-12-05T08:01:55;22.40;;;12.63;;
35540;SDS011;21650;48.840;9.162;2022-12-05T08:04:21;20.70;;;11.63;;
35540;SDS011;21650;48.840;9.162;2022-12-05T08:06:46;22.67;;;11.53;;
35540;SDS011;21650;48.840;9.162;2022-12-05T08:09:12;25.33;;;12.47;;
35540;SDS011;21650;48.840;9.162;2022-12-05T08:11:38;21.83;;;11.93;;
35540;SDS011;21650;48.840;9.162;2022-12-05T08:14:04;19.73;;;11.40;;
35540;SDS011;21650;48.840;9.162;2022-12-05T08:16:30;21.70;;;11.93;;
35540;SDS011;21650;48.840;9.162;2022-12-05T08:19:00;27.63;;;11.83;;
35540;SDS011;21650;48.840;9.162;2022-12-05T08:21:31;24.23;;;11.93;;
35540;SDS011;21650;48.840;9.162;2022-12-05T08:23:57;24.30;;;12.57;;
35540;SDS011;21650;48.840;9.162;2022-12-05T08:26:27;23.87;;;12.93;;
35540;SDS011;21650;48.840;9.162;2022-12-05T08:28:55;23.33;;;11.47;;
35540;SDS011;21650;48.840;9.162;2022-12-05T08:31:23;24.20;;;12.33;;
35540;SDS011;21650;48.840;9.162;2022-12-05T08:33:50;22.53;;;11.97;;
35540;SDS011;21650;48.840;9.162;2022-12-05T08:36:17;19.53;;;10.67;;
35540;SDS011;21650;48.840;9.162;2022-12-05T08:38:43;26.33;;;11.73;;
35540;SDS011;21650;48.840;9.162;2022-12-05T08:41:10;20.03;;;10.43;;
35540;SDS011;21650;48.840;9.162;2022-12-05T08:43:41;23.30;;;12.20;;
35540;SDS011;21650;48.840;9.162;2022-12-05T08:46:07;20.23;;;11.20;;
35540;SDS011;21650;48.840;9.162;2022-12-05T08:48:33;22.83;;;11.30;;
35540;SDS011;21650;48.840;9.162;2022-12-05T08:51:03;23.80;;;13.00;;
35540;SDS011;21650;48.840;9.162;2022-12-05T08:53:31;19.50;;;10.47;;
35540;SDS011;21650;48.840;9.162;2022-12-05T08:56:03;22.63;;;11.43;;
35540;SDS011;21650;48.840;9.162;2022-12-05T08:58:30;19.07;;;10.10;;
35540;SDS011;21650;48.840;9.162;2022-12-05T09:01:05;24.00;;;11.60;;
35540;SDS011;21650;48.840;9.162;2022-12-05T09:03:33;16.33;;;10.43;;
35540;SDS011;21650;48.840;9.162;2022-12-05T09:06:05;25.20;;;12.07;;
35540;SDS011;21650;48.840;9.162;2022-12-05T09:08:36;17.53;;;11.37;;
35540;SDS011;21650;48.840;9.162;2022-12-05T09:11:10;24.93;;;11.30;;
35540;SDS011;21650;48.840;9.162;2022-12-05T09:13:38;25.00;;;11.90;;
35540;SDS011;21650;48.840;9.162;2022-12-05T09:16:05;22.60;;;12.13;;
35540;SDS011;21650;48.840;9.162;2022-12-05T09:18:31;15.90;;;9.77;;
35540;SDS011;21650;48.840;9.162;2022-12-05T09:20:56;19.67;;;10.87;;
35540;SDS011;21650;48.840;9.162;2022-12-05T09:23:22;21.83;;;12.03;;
35540;SDS011;21650;48.840;9.162;2022-12-05T09:25:54;19.90;;;10.90;;
35540;SDS011;21650;48.840;9.162;2022-12-05T09:28:22;18.67;;;11.30;;
35540;SDS011;21650;48.840;9.162;2022-12-05T09:31:01;22.43;;;11.30;;
35540;SDS011;21650;48.840;9.162;2022-12-05T09:33:29;16.87;;;11.03;;
35540;SDS011;21650;48.840;9.162;2022-12-05T09:35:56;18.30;;;9.70;;
35540;SDS011;21650;48.840;9.162;2022-12-05T09:38:22;18.07;;;9.80;;
35540;SDS011;21650;48.840;9.162;2022-12-05T09:40:53;18.17;;;10.23;;
35540;SDS011;21650;48.840;9.162;2022-12-05T09:43:48;18.10;;;9.53;;
35540;SDS011;21650;48.840;9.162;2022-12-05T09:49:10;18.60;;;11.37;;
35540;SDS011;21650;48.840;9.162;2022-12-05T09:51:36;22.67;;;12.63;;
35540;SDS011;21650;48.840;9.162;2022-12-05T09:54:07;19.10;;;10.93;;
35540;SDS011;21650;48.840;9.162;2022-12-05T09:56:35;21.30;;;11.10;;
35540;SDS011;21650;48.840;9.162;2022-12-05T09:59:04;19.77;;;11.00;;
35540;SDS011;21650;48.840;9.162;2022-12-05T10:12:45;20.77;;;11.03;;
35540;SDS011;21650;48.840;9.162;2022-12-05T10:15:17;19.83;;;11.37;;
35540;SDS011;21650;48.840;9.162;2022-12-05T10:26:06;18.50;;;11.10;;
35540;SDS011;21650;48.840;9.162;2022-12-05T10:31:06;23.23;;;12.43;;
35540;SDS011;21650;48.840;9.162;2022-12-05T10:33:39;19.93;;;11.50;;
35540;SDS011;21650;48.840;9.162;2022-12-05T10:36:13;26.40;;;11.67;;
35540;SDS011;21650;48.840;9.162;2022-12-05T10:38:41;21.40;;;12.13;;
35540;SDS011;21650;48.840;9.162;2022-12-05T10:41:09;17.23;;;10.20;;
35540;SDS011;21650;48.840;9.162;2022-12-05T10:43:38;19.90;;;11.73;;
35540;SDS011;21650;48.840;9.162;2022-12-05T10:46:06;15.43;;;10.33;;
35540;SDS011;21650;48.840;9.162;2022-12-05T10:48:41;22.73;;;11.37;;
35540;SDS011;21650;48.840;9.162;2022-12-05T10:51:13;21.13;;;10.67;;
35540;SDS011;21650;48.840;9.162;2022-12-05T10:53:44;23.17;;;11.63;;
35540;SDS011;21650;48.840;9.162;2022-12-05T10:59:00;22.97;;;12.87;;
35540;SDS011;21650;48.840;9.162;2022-12-05T11:01:25;23.70;;;12.13;;
35540;SDS011;21650;48.840;9.162;2022-12-05T11:03:58;22.60;;;12.37;;
35540;SDS011;21650;48.840;9.162;2022-12-05T11:06:26;24.13;;;12.50;;
35540;SDS011;21650;48.840;9.162;2022-12-05T11:08:55;20.97;;;11.97;;
35540;SDS011;21650;48.840;9.162;2022-12-05T11:11:24;22.33;;;12.77;;
35540;SDS011;21650;48.840;9.162;2022-12-05T11:13:57;22.40;;;12.30;;
35540;SDS011;21650;48.840;9.162;2022-12-05T11:16:33;19.17;;;12.40;;
35540;SDS011;21650;48.840;9.162;2022-12-05T11:21:53;18.90;;;10.87;;
35540;SDS011;21650;48.840;9.162;2022-12-05T11:26:46;18.40;;;10.93;;
35540;SDS011;21650;48.840;9.162;2022-12-05T11:29:26;18.30;;;11.07;;
35540;SDS011;21650;48.840;9.162;2022-12-05T11:31:53;17.57;;;10.17;;
35540;SDS011;21650;48.840;9.162;2022-12-05T11:34:20;20.47;;;10.97;;
35540;SDS011;21650;48.840;9.162;2022-12-05T11:36:51;18.70;;;10.67;;
35540;SDS011;21650;48.840;9.162;2022-12-05T11:39:24;17.67;;;11.23;;
35540;SDS011;21650;48.840;9.162;2022-12-05T11:41:54;21.57;;;11.97;;
35540;SDS011;21650;48.840;9.162;2022-12-05T11:47:04;24.40;;;11.93;;
35540;SDS011;21650;48.840;9.162;2022-12-05T11:55:35;22.97;;;10.90;;
35540;SDS011;21650;48.840;9.162;2022-12-05T12:03:58;17.17;;;9.40;;
35540;SDS011;21650;48.840;9.162;2022-12-05T12:07:04;16.50;;;9.53;;
35540;SDS011;21650;48.840;9.162;2022-12-05T12:21:47;13.70;;;9.57;;
35540;SDS011;21650;48.840;9.162;2022-12-05T12:24:02;15.50;;;9.07;;
35540;SDS011;21650;48.840;9.162;2022-12-05T12:29:16;15.10;;;9.60;;
35540;SDS011;21650;48.840;9.162;2022-12-05T12:31:54;14.00;;;9.90;;
35540;SDS011;21650;48.840;9.162;2022-12-05T12:37:33;10.47;;;7.43;;
35540;SDS011;21650;48.840;9.162;2022-12-05T12:48:54;16.53;;;9.27;;
35540;SDS011;21650;48.840;9.162;2022-12-05T12:51:43;11.03;;;7.90;;
35540;SDS011;21650;48.840;9.162;2022-12-05T12:54:34;12.40;;;8.20;;
35540;SDS011;21650;48.840;9.162;2022-12-05T13:05:32;14.33;;;8.13;;
35540;SDS011;21650;48.840;9.162;2022-12-05T13:08:13;12.57;;;7.23;;
35540;SDS011;21650;48.840;9.162;2022-12-05T13:10:41;13.67;;;7.93;;
35540;SDS011;21650;48.840;9.162;2022-12-05T13:13:11;11.03;;;7.73;;
35540;SDS011;21650;48.840;9.162;2022-12-05T13:15:41;10.47;;;7.57;;
35540;SDS011;21650;48.840;9.162;2022-12-05T13:18:14;9.43;;;7.57;;
35540;SDS011;21650;48.840;9.162;2022-12-05T13:20:47;12.77;;;8.67;;
35540;SDS011;21650;48.840;9.162;2022-12-05T13:23:15;12.13;;;7.70;;
35540;SDS011;21650;48.840;9.162;2022-12-05T13:25:53;11.97;;;8.30;;
35540;SDS011;21650;48.840;9.162;2022-12-05T13:28:28;13.53;;;8.23;;
35540;SDS011;21650;48.840;9.162;2022-12-05T13:30:56;13.57;;;8.07;;
35540;SDS011;21650;48.840;9.162;2022-12-05T13:33:25;13.67;;;7.17;;
35540;SDS011;21650;48.840;9.162;2022-12-05T13:35:55;10.20;;;7.50;;
35540;SDS011;21650;48.840;9.162;2022-12-05T13:38:45;13.10;;;7.40;;
35540;SDS011;21650;48.840;9.162;2022-12-05T13:41:43;12.47;;;8.27;;
35540;SDS011;21650;48.840;9.162;2022-12-05T13:44:34;10.37;;;7.20;;
35540;SDS011;21650;48.840;9.162;2022-12-05T13:47:26;12.53;;;7.63;;
35540;SDS011;21650;48.840;9.162;2022-12-05T13:49:58;11.53;;;7.93;;
35540;SDS011;21650;48.840;9.162;2022-12-05T13:52:47;12.80;;;8.57;;
35540;SDS011;21650;48.840;9.162;2022-12-05T13:55:31;9.63;;;7.10;;
35540;SDS011;21650;48.840;9.162;2022-12-05T13:58:00;17.27;;;7.97;;
35540;SDS011;21650;48.840;9.162;2022-12-05T14:00:28;13.97;;;8.97;;
35540;SDS011;21650;48.840;9.162;2022-12-05T14:03:02;16.53;;;8.90;;
35540;SDS011;21650;48.840;9.162;2022-12-05T14:05:37;14.53;;;9.80;;
35540;SDS011;21650;48.840;9.162;2022-12-05T14:15:46;17.60;;;10.37;;
35540;SDS011;21650;48.840;9.162;2022-12-05T14:34:35;16.80;;;10.63;;
35540;SDS011;21650;48.840;9.162;2022-12-05T14:39:41;17.20;;;11.30;;
35540;SDS011;21650;48.840;9.162;2022-12-05T14:48:02;20.97;;;11.87;;
35540;SDS011;21650;48.840;9.162;2022-12-05T14:58:32;17.33;;;10.80;;
35540;SDS011;21650;48.840;9.162;2022-12-05T15:01:08;22.20;;;11.67;;
35540;SDS011;21650;48.840;9.162;2022-12-05T15:06:36;23.20;;;13.90;;
35540;SDS011;21650;48.840;9.162;2022-12-05T15:09:16;20.50;;;12.63;;
35540;SDS011;21650;48.840;9.162;2022-12-05T15:11:59;20.87;;;13.53;;
35540;SDS011;21650;48.840;9.162;2022-12-05T15:14:27;18.40;;;11.70;;
35540;SDS011;21650;48.840;9.162;2022-12-05T15:16:56;18.97;;;12.07;;
35540;SDS011;21650;48.840;9.162;2022-12-05T15:19:29;19.53;;;12.33;;
35540;SDS011;21650;48.840;9.162;2022-12-05T15:22:05;17.67;;;11.10;;
35540;SDS011;21650;48.840;9.162;2022-12-05T15:24:36;20.63;;;12.40;;
35540;SDS011;21650;48.840;9.162;2022-12-05T15:27:03;22.90;;;12.93;;
35540;SDS011;21650;48.840;9.162;2022-12-05T15:29:30;20.20;;;12.13;;
35540;SDS011;21650;48.840;9.162;2022-12-05T15:32:01;20.00;;;12.20;;
35540;SDS011;21650;48.840;9.162;2022-12-05T15:42:41;22.50;;;12.80;;
35540;SDS011;21650;48.840;9.162;2022-12-05T15:47:39;20.00;;;12.87;;
35540;SDS011;21650;48.840;9.162;2022-12-05T15:55:55;37.47;;;19.43;;
35540;SDS011;21650;48.840;9.162;2022-12-05T15:58:35;29.47;;;14.93;;
35540;SDS011;21650;48.840;9.162;2022-12-05T16:01:05;102.53;;;42.80;;
35540;SDS011;21650;48.840;9.162;2022-12-05T16:06:10;50.53;;;25.03;;
35540;SDS011;21650;48.840;9.162;2022-12-05T16:08:46;43.07;;;21.77;;
35540;SDS011;21650;48.840;9.162;2022-12-05T16:11:13;40.27;;;20.37;;
35540;SDS011;21650;48.840;9.162;2022-12-05T16:13:43;23.47;;;14.87;;
35540;SDS011;21650;48.840;9.162;2022-12-05T16:16:13;27.20;;;15.93;;
35540;SDS011;21650;48.840;9.162;2022-12-05T16:18:52;25.17;;;14.53;;
35540;SDS011;21650;48.840;9.162;2022-12-05T16:23:59;23.10;;;11.70;;
35540;SDS011;21650;48.840;9.162;2022-12-05T16:26:42;19.90;;;11.57;;
35540;SDS011;21650;48.840;9.162;2022-12-05T16:29:28;18.70;;;11.40;;
35540;SDS011;21650;48.840;9.162;2022-12-05T16:31:56;20.87;;;11.03;;
35540;SDS011;21650;48.840;9.162;2022-12-05T16:34:24;18.27;;;11.00;;
35540;SDS011;21650;48.840;9.162;2022-12-05T16:36:52;21.93;;;11.97;;
35540;SDS011;21650;48.840;9.162;2022-12-05T16:39:19;19.27;;;11.77;;
35540;SDS011;21650;48.840;9.162;2022-12-05T16:41:45;19.47;;;12.37;;
35540;SDS011;21650;48.840;9.162;2022-12-05T16:47:22;18.57;;;11.57;;
35540;SDS011;21650;48.840;9.162;2022-12-05T16:49:49;18.93;;;11.03;;
35540;SDS011;21650;48.840;9.162;2022-12-05T16:52:14;24.20;;;13.03;;
35540;SDS011;21650;48.840;9.162;2022-12-05T16:54:41;21.57;;;11.77;;
35540;SDS011;21650;48.840;9.162;2022-12-05T16:57:11;20.13;;;11.97;;
35540;SDS011;21650;48.840;9.162;2022-12-05T16:59:38;17.63;;;11.37;;
35540;SDS011;21650;48.840;9.162;2022-12-05T17:02:10;22.23;;;12.13;;
35540;SDS011;21650;48.840;9.162;2022-12-05T17:04:38;17.80;;;11.37;;
35540;SDS011;21650;48.840;9.162;2022-12-05T17:07:04;19.17;;;12.67;;
35540;SDS011;21650;48.840;9.162;2022-12-05T17:09:29;22.37;;;13.50;;
35540;SDS011;21650;48.840;9.162;2022-12-05T17:11:59;18.57;;;11.70;;
35540;SDS011;21650;48.840;9.162;2022-12-05T17:14:28;19.90;;;12.27;;
35540;SDS011;21650;48.840;9.162;2022-12-05T17:16:54;20.03;;;11.87;;
35540;SDS011;21650;48.840;9.162;2022-12-05T17:19:20;20.50;;;11.53;;
35540;SDS011;21650;48.840;9.162;2022-12-05T17:21:45;19.70;;;12.53;;
35540;SDS011;21650;48.840;9.162;2022-12-05T17:24:15;23.10;;;13.03;;
35540;SDS011;21650;48.840;9.162;2022-12-05T17:26:41;20.87;;;11.83;;
35540;SDS011;21650;48.840;9.162;2022-12-05T17:29:07;19.40;;;11.60;;
35540;SDS011;21650;48.840;9.162;2022-12-05T17:31:34;19.73;;;12.93;;
35540;SDS011;21650;48.840;9.162;2022-12-05T17:34:00;21.53;;;13.17;;
35540;SDS011;21650;48.840;9.162;2022-12-05T17:36:26;25.73;;;12.90;;
35540;SDS011;21650;48.840;9.162;2022-12-05T17:38:52;24.10;;;13.20;;
35540;SDS011;21650;48.840;9.162;2022-12-05T17:41:18;20.63;;;12.00;;
35540;SDS011;21650;48.840;9.162;2022-12-05T17:43:46;20.10;;;11.37;;
35540;SDS011;21650;48.840;9.162;2022-12-05T17:46:16;20.07;;;11.97;;
35540;SDS011;21650;48.840;9.162;2022-12-05T17:48:44;19.63;;;12.40;;
35540;SDS011;21650;48.840;9.162;2022-12-05T17:51:10;19.57;;;12.67;;
35540;SDS011;21650;48.840;9.162;2022-12-05T17:53:38;17.93;;;11.73;;
35540;SDS011;21650;48.840;9.162;2022-12-05T17:56:04;23.37;;;12.30;;
35540;SDS011;21650;48.840;9.162;2022-12-05T17:58:31;21.63;;;12.27;;